Time;durP1;ratioP1;P1;durP2;ratioP2;P2;SDS_P1;SDS_P2;PMS_P1;PMS_P2;Temp;Humidity;BMP_temperature;BMP_pressure;BME280_temperature;BME280_humidity;BME280_pressure;Samples;Min_cycle;Max_cycle;Signal;HPM_P1;HPM_P2
2022/02/23 00:01:31;;;;;;;15.70;4.43;;;9.10;78.90;;;;;;5022081;28;20190;-89
2022/02/23 00:04:01;;;;;;;9.60;3.23;;;9.10;78.60;;;;;;5019897;28;20193;-89
2022/02/23 00:06:27;;;;;;;13.90;4.27;;;9.30;78.90;;;;;;5022782;28;20197;-88
2022/02/23 00:08:55;;;;;;;9.80;3.10;;;9.00;80.90;;;;;;5022916;28;20186;-88
2022/02/23 00:11:21;;;;;;;12.67;4.10;;;9.10;82.10;;;;;;5020488;28;20341;-87
2022/02/23 00:13:46;;;;;;;12.23;4.13;;;9.20;80.80;;;;;;5021106;28;20174;-89
2022/02/23 00:16:12;;;;;;;14.97;4.50;;;9.20;81.00;;;;;;5020811;28;20550;-91
2022/02/23 00:18:38;;;;;;;10.53;4.10;;;9.10;81.80;;;;;;5003992;28;20158;-90
2022/02/23 00:21:05;;;;;;;11.50;4.23;;;9.20;81.00;;;;;;5019789;28;20221;-89
2022/02/23 00:23:30;;;;;;;12.87;3.57;;;9.20;79.50;;;;;;5029457;28;20178;-89
2022/02/23 00:25:56;;;;;;;13.93;4.20;;;9.30;80.90;;;;;;5026662;28;20232;-90
2022/02/23 00:28:31;;;;;;;10.87;4.00;;;9.20;81.10;;;;;;5006511;28;20194;-88
2022/02/23 00:30:58;;;;;;;10.80;3.77;;;9.00;81.40;;;;;;5021650;28;20209;-89
2022/02/23 00:33:24;;;;;;;14.70;4.43;;;9.00;82.50;;;;;;5025349;28;20170;-88
2022/02/23 00:35:51;;;;;;;11.30;4.23;;;9.20;82.30;;;;;;5035622;28;20193;-86
2022/02/23 00:38:17;;;;;;;14.40;4.23;;;9.10;82.20;;;;;;5034921;28;20162;-90
2022/02/23 00:40:43;;;;;;;13.60;4.37;;;9.10;81.20;;;;;;5020401;28;20189;-89
2022/02/23 00:43:09;;;;;;;9.87;3.90;;;9.30;79.50;;;;;;5028969;28;20657;-90
2022/02/23 00:45:35;;;;;;;10.90;4.17;;;9.30;78.70;;;;;;5025562;28;20534;-90
2022/02/23 00:48:08;;;;;;;9.57;3.80;;;9.20;79.60;;;;;;5024272;28;20174;-88
2022/02/23 00:50:33;;;;;;;10.67;4.10;;;9.20;81.50;;;;;;5019341;28;20270;-89
2022/02/23 00:52:59;;;;;;;13.63;4.30;;;9.00;81.10;;;;;;5022008;28;20205;-88
2022/02/23 00:55:25;;;;;;;14.53;4.20;;;9.10;80.50;;;;;;5021674;28;20179;-90
2022/02/23 00:57:51;;;;;;;9.63;3.60;;;9.00;80.00;;;;;;5021020;28;20242;-89
2022/02/23 01:00:16;;;;;;;12.27;4.17;;;8.80;79.80;;;;;;5021319;28;20185;-88
2022/02/23 01:02:51;;;;;;;11.93;4.10;;;8.90;79.80;;;;;;5008623;28;20183;-91
2022/02/23 01:05:17;;;;;;;9.93;3.83;;;8.90;79.60;;;;;;5004901;28;20242;-90
2022/02/23 01:07:46;;;;;;;13.40;3.90;;;8.80;79.90;;;;;;5004180;28;20202;-87
2022/02/23 01:10:13;;;;;;;11.67;3.63;;;8.70;82.30;;;;;;5001441;28;20211;-88
2022/02/23 01:12:38;;;;;;;8.83;3.50;;;8.50;84.50;;;;;;5000624;28;20269;-88
2022/02/23 01:15:06;;;;;;;10.43;3.83;;;8.50;86.10;;;;;;5001511;28;20190;-88
2022/02/23 01:17:32;;;;;;;12.43;3.50;;;8.50;87.10;;;;;;4986565;28;20229;-88
2022/02/23 01:19:58;;;;;;;8.60;3.83;;;8.70;88.10;;;;;;5001928;28;20226;-88
2022/02/23 01:22:25;;;;;;;11.70;3.87;;;8.40;88.50;;;;;;5002125;28;20175;-89
2022/02/23 01:24:50;;;;;;;9.07;4.00;;;8.30;90.00;;;;;;5001010;28;20183;-90
2022/02/23 01:27:16;;;;;;;13.50;4.17;;;8.20;90.50;;;;;;4999855;28;20206;-89
2022/02/23 01:29:42;;;;;;;14.60;4.63;;;8.30;90.70;;;;;;4985638;28;20237;-90
2022/02/23 01:32:09;;;;;;;13.17;4.03;;;8.20;91.00;;;;;;5014101;28;20194;-90
2022/02/23 01:34:35;;;;;;;9.50;4.23;;;8.20;91.30;;;;;;5021685;28;20182;-89
2022/02/23 01:37:01;;;;;;;10.37;3.50;;;8.20;91.30;;;;;;5003811;28;20178;-90
2022/02/23 01:39:27;;;;;;;13.87;3.90;;;8.10;91.70;;;;;;5021008;28;20174;-89
2022/02/23 01:41:53;;;;;;;10.60;3.80;;;8.00;91.90;;;;;;5018216;28;20270;-89
2022/02/23 01:44:19;;;;;;;9.23;3.40;;;7.90;92.20;;;;;;5020025;28;20186;-89
2022/02/23 01:46:44;;;;;;;14.23;4.23;;;7.90;92.20;;;;;;5021547;28;20178;-87
2022/02/23 01:49:11;;;;;;;13.90;4.30;;;7.80;92.30;;;;;;5021385;28;20292;-88
2022/02/23 01:51:37;;;;;;;8.60;3.43;;;7.90;92.70;;;;;;5021554;28;20166;-89
2022/02/23 01:54:05;;;;;;;8.37;3.07;;;7.90;92.60;;;;;;5021212;28;20181;-88
2022/02/23 01:56:34;;;;;;;8.37;3.23;;;8.00;92.40;;;;;;5019853;28;20182;-90
2022/02/23 01:59:00;;;;;;;8.57;3.60;;;8.20;92.10;;;;;;5020117;28;20182;-89
2022/02/23 02:01:25;;;;;;;10.23;3.60;;;8.10;91.30;;;;;;5021691;28;20224;-89
2022/02/23 02:03:54;;;;;;;9.20;3.63;;;7.90;91.40;;;;;;5033176;28;20182;-88
2022/02/23 02:06:19;;;;;;;11.43;3.47;;;7.80;91.80;;;;;;5036415;28;20182;-90
2022/02/23 02:08:46;;;;;;;11.10;3.97;;;7.70;92.50;;;;;;5035115;28;20189;-88
2022/02/23 02:11:27;;;;;;;11.63;3.63;;;7.70;92.80;;;;;;5038367;28;20181;-85
2022/02/23 02:13:54;;;;;;;12.47;3.90;;;7.80;92.80;;;;;;5023313;28;20154;-89
2022/02/23 02:16:20;;;;;;;10.90;4.03;;;7.80;93.00;;;;;;5027440;28;20201;-90
2022/02/23 02:18:48;;;;;;;9.33;3.53;;;8.00;92.50;;;;;;5028509;28;20174;-88
2022/02/23 02:21:14;;;;;;;12.23;4.13;;;7.70;92.20;;;;;;5024300;28;20170;-87
2022/02/23 02:23:39;;;;;;;9.27;3.40;;;7.80;92.10;;;;;;5021690;28;20213;-89
2022/02/23 02:26:11;;;;;;;14.20;3.87;;;7.90;92.10;;;;;;5021697;28;20154;-89
2022/02/23 02:28:38;;;;;;;9.03;4.03;;;7.80;92.00;;;;;;5021268;28;20205;-90
2022/02/23 02:31:04;;;;;;;12.73;3.67;;;7.90;91.60;;;;;;5020623;28;20209;-89
2022/02/23 02:33:30;;;;;;;16.20;4.83;;;7.70;91.00;;;;;;5022544;28;20295;-88
2022/02/23 02:35:57;;;;;;;16.93;4.90;;;7.50;91.60;;;;;;5024427;28;20170;-89
2022/02/23 02:38:29;;;;;;;12.50;4.77;;;7.40;92.50;;;;;;5025408;28;20189;-89
2022/02/23 02:40:54;;;;;;;11.77;3.83;;;7.30;93.20;;;;;;5025332;28;20167;-89
2022/02/23 02:43:21;;;;;;;12.33;4.53;;;7.20;93.90;;;;;;5025434;28;20205;-90
2022/02/23 02:45:47;;;;;;;11.00;4.47;;;7.20;94.00;;;;;;5026071;28;20265;-90
2022/02/23 02:48:16;;;;;;;12.03;3.90;;;7.30;94.30;;;;;;5033035;28;20177;-90
2022/02/23 02:50:42;;;;;;;9.23;3.70;;;7.10;94.40;;;;;;5040025;28;20231;-89
2022/02/23 02:53:07;;;;;;;13.77;3.67;;;7.00;94.80;;;;;;5039813;28;20170;-88
2022/02/23 02:55:34;;;;;;;12.73;3.60;;;7.10;95.10;;;;;;5040873;28;20167;-88
2022/02/23 02:58:00;;;;;;;8.40;3.37;;;6.90;95.00;;;;;;5028878;28;20181;-89
2022/02/23 03:00:26;;;;;;;9.77;3.53;;;6.90;95.20;;;;;;5027550;28;20217;-90
2022/02/23 03:02:54;;;;;;;8.30;3.60;;;6.80;95.60;;;;;;5013465;28;20178;-89
2022/02/23 03:05:23;;;;;;;13.50;3.47;;;6.70;95.90;;;;;;5004043;28;20183;-88
2022/02/23 03:07:50;;;;;;;9.03;3.60;;;6.70;96.40;;;;;;5002989;28;20172;-87
2022/02/23 03:10:17;;;;;;;8.03;2.93;;;6.90;96.20;;;;;;5002714;28;20206;-89
2022/02/23 03:12:44;;;;;;;11.17;3.30;;;6.70;96.10;;;;;;5002909;28;20183;-88
2022/02/23 03:15:10;;;;;;;11.50;3.93;;;6.80;96.20;;;;;;5002660;28;20190;-88
2022/02/23 03:17:36;;;;;;;8.83;3.20;;;6.90;96.10;;;;;;5002501;28;20175;-89
2022/02/23 03:20:05;;;;;;;10.37;3.30;;;7.00;96.00;;;;;;5001274;28;20202;-89
2022/02/23 03:22:30;;;;;;;10.03;3.03;;;7.10;95.70;;;;;;5002362;28;20174;-89
2022/02/23 03:24:56;;;;;;;9.77;3.43;;;7.10;95.30;;;;;;5001887;28;20258;-88
2022/02/23 03:27:22;;;;;;;11.27;3.50;;;7.30;94.80;;;;;;5001291;28;20197;-89
2022/02/23 03:29:47;;;;;;;13.73;3.53;;;7.20;94.40;;;;;;4999899;28;20218;-88
2022/02/23 03:32:13;;;;;;;11.73;3.50;;;7.20;94.00;;;;;;5006287;28;20535;-89
2022/02/23 03:34:40;;;;;;;10.97;2.87;;;7.10;94.10;;;;;;5019466;28;20182;-90
2022/02/23 03:37:09;;;;;;;12.17;3.50;;;7.10;94.10;;;;;;5019796;28;20186;-88
2022/02/23 03:39:35;;;;;;;10.00;3.10;;;7.10;94.00;;;;;;5022926;28;20167;-88
2022/02/23 03:42:01;;;;;;;10.37;4.13;;;7.20;94.10;;;;;;5024238;28;20246;-89
2022/02/23 03:44:29;;;;;;;13.73;3.60;;;7.20;94.20;;;;;;5032085;28;20218;-89
2022/02/23 03:46:56;;;;;;;11.23;3.50;;;7.10;94.10;;;;;;5033946;28;20162;-89
2022/02/23 03:49:21;;;;;;;11.47;3.63;;;7.00;93.70;;;;;;5022677;28;20198;-88
2022/02/23 03:51:50;;;;;;;9.97;3.43;;;6.90;93.90;;;;;;5020723;28;20627;-89
2022/02/23 03:54:16;;;;;;;9.80;3.60;;;6.90;94.20;;;;;;5020766;28;20177;-89
2022/02/23 03:56:46;;;;;;;12.73;4.17;;;6.90;94.20;;;;;;5020310;28;20264;-89
2022/02/23 03:59:14;;;;;;;13.20;3.70;;;7.00;93.80;;;;;;5019812;28;20229;-91
2022/02/23 04:01:47;;;;;;;11.07;3.27;;;6.90;93.70;;;;;;5021107;28;20201;-89
2022/02/23 04:04:15;;;;;;;9.60;3.87;;;7.00;93.70;;;;;;5000269;28;20171;-89
2022/02/23 04:06:40;;;;;;;11.03;3.23;;;6.90;93.80;;;;;;5011143;28;20650;-87
2022/02/23 04:09:08;;;;;;;11.37;3.47;;;6.90;94.00;;;;;;5015567;28;20199;-87
2022/02/23 04:11:34;;;;;;;9.07;3.47;;;7.00;94.10;;;;;;5014513;28;20171;-90
2022/02/23 04:14:01;;;;;;;15.53;4.10;;;7.00;93.70;;;;;;5011226;28;20213;-89
2022/02/23 04:16:27;;;;;;;10.17;3.53;;;7.00;93.40;;;;;;5005725;28;20320;-88
2022/02/23 04:18:54;;;;;;;15.50;3.97;;;6.90;93.30;;;;;;5018973;28;20236;-91
2022/02/23 04:21:21;;;;;;;10.67;3.70;;;6.90;93.50;;;;;;5013529;28;20182;-89
2022/02/23 04:23:49;;;;;;;9.83;3.70;;;6.70;93.60;;;;;;5016243;28;20189;-90
2022/02/23 04:26:19;;;;;;;9.57;3.97;;;6.70;93.80;;;;;;5019314;28;20178;-89
2022/02/23 04:28:45;;;;;;;12.83;3.60;;;6.50;94.10;;;;;;4973477;28;1292126;-89
2022/02/23 04:31:11;;;;;;;7.80;3.53;;;6.50;94.70;;;;;;5020149;28;20179;-90
2022/02/23 04:33:40;;;;;;;12.97;3.50;;;6.40;95.30;;;;;;5019991;28;20185;-89
2022/02/23 04:36:07;;;;;;;11.13;3.50;;;6.30;95.50;;;;;;5019209;28;20193;-90
2022/02/23 04:38:34;;;;;;;11.67;3.63;;;6.30;95.70;;;;;;5019926;28;20174;-89
2022/02/23 04:40:59;;;;;;;9.10;3.23;;;6.50;96.00;;;;;;5019536;28;20181;-88
2022/02/23 04:43:25;;;;;;;8.30;3.43;;;6.40;96.10;;;;;;5018138;28;20217;-89
2022/02/23 04:45:51;;;;;;;11.23;3.40;;;6.30;96.10;;;;;;5019517;28;20174;-90
2022/02/23 04:48:17;;;;;;;9.33;3.50;;;6.20;96.20;;;;;;5019046;28;20222;-89
2022/02/23 04:50:44;;;;;;;12.20;4.93;;;6.10;96.50;;;;;;5019197;28;20224;-90
2022/02/23 04:53:10;;;;;;;8.33;3.53;;;6.10;96.80;;;;;;5019839;28;20174;-88
2022/02/23 04:55:36;;;;;;;10.07;3.30;;;6.10;96.90;;;;;;5018933;28;20185;-89
2022/02/23 04:58:07;;;;;;;12.03;3.83;;;6.30;96.90;;;;;;5018606;28;20544;-88
2022/02/23 05:00:42;;;;;;;13.77;4.23;;;6.30;96.70;;;;;;5022273;28;20317;-90
2022/02/23 05:03:08;;;;;;;10.40;3.50;;;6.30;96.60;;;;;;5013468;28;20187;-88
2022/02/23 05:05:36;;;;;;;11.20;4.17;;;6.20;96.80;;;;;;5002162;28;20171;-88
2022/02/23 05:08:04;;;;;;;20.03;4.20;;;6.10;97.00;;;;;;5008886;28;20175;-88
2022/02/23 05:10:31;;;;;;;12.23;4.00;;;6.10;97.10;;;;;;5018492;28;20215;-89
2022/02/23 05:12:58;;;;;;;8.73;3.80;;;6.00;97.30;;;;;;5013846;28;20176;-89
2022/02/23 05:15:28;;;;;;;10.13;3.87;;;6.00;97.50;;;;;;5013024;28;20189;-88
2022/02/23 05:17:57;;;;;;;11.87;3.60;;;6.00;97.60;;;;;;5008427;28;20159;-90
2022/02/23 05:20:23;;;;;;;10.07;3.90;;;5.90;97.90;;;;;;5001037;28;20195;-90
2022/02/23 05:22:49;;;;;;;13.57;4.90;;;5.80;97.80;;;;;;5000676;28;20616;-88
2022/02/23 05:25:16;;;;;;;12.13;3.90;;;5.90;98.00;;;;;;5000144;28;20175;-89
2022/02/23 05:27:43;;;;;;;9.83;3.97;;;6.00;98.40;;;;;;4999848;28;20190;-90
2022/02/23 05:30:09;;;;;;;10.47;3.90;;;5.80;98.30;;;;;;4999003;28;20206;-90
2022/02/23 05:32:36;;;;;;;14.10;4.27;;;5.80;98.40;;;;;;5000601;28;20229;-88
2022/02/23 05:35:04;;;;;;;11.47;3.73;;;5.90;98.40;;;;;;5018516;28;20178;-88
2022/02/23 05:37:32;;;;;;;11.97;4.37;;;5.80;98.50;;;;;;5018768;28;20170;-88
2022/02/23 05:39:58;;;;;;;12.27;4.67;;;5.80;98.60;;;;;;5018444;28;20166;-88
2022/02/23 05:42:24;;;;;;;9.17;4.87;;;5.70;98.80;;;;;;5018720;28;20186;-88
2022/02/23 05:44:52;;;;;;;9.33;4.43;;;5.80;99.30;;;;;;5018647;28;20170;-90
2022/02/23 05:47:19;;;;;;;13.37;4.50;;;5.80;99.10;;;;;;5018744;28;20174;-89
2022/02/23 05:49:44;;;;;;;14.60;3.97;;;5.90;99.10;;;;;;5001273;28;20202;-89
2022/02/23 05:52:13;;;;;;;13.93;4.20;;;5.70;99.10;;;;;;5019351;28;20673;-89
2022/02/23 05:54:40;;;;;;;12.13;4.47;;;5.70;99.30;;;;;;5018659;28;20182;-90
2022/02/23 05:57:07;;;;;;;11.67;4.53;;;5.70;99.50;;;;;;5019447;28;20206;-89
2022/02/23 05:59:32;;;;;;;16.60;4.73;;;5.60;99.60;;;;;;5018443;28;20204;-91
2022/02/23 06:02:01;;;;;;;14.77;5.03;;;5.70;99.80;;;;;;5001647;28;20637;-91
2022/02/23 06:04:28;;;;;;;11.30;4.80;;;5.80;99.60;;;;;;5003156;28;20171;-90
2022/02/23 06:06:54;;;;;;;9.73;4.73;;;5.70;99.40;;;;;;4998496;28;20198;-90
2022/02/23 06:09:20;;;;;;;17.27;5.67;;;5.80;99.50;;;;;;5000989;28;20686;-88
2022/02/23 06:11:47;;;;;;;12.90;4.93;;;5.70;99.40;;;;;;5002688;28;20186;-89
2022/02/23 06:14:15;;;;;;;12.73;4.57;;;5.80;99.50;;;;;;5002591;28;20251;-90
2022/02/23 06:16:41;;;;;;;17.07;6.40;;;5.90;99.20;;;;;;5001636;28;20247;-90
2022/02/23 06:19:07;;;;;;;17.00;6.07;;;6.10;98.30;;;;;;5001166;28;20258;-91
2022/02/23 06:21:34;;;;;;;14.40;6.67;;;6.20;97.60;;;;;;5003084;28;20183;-90
2022/02/23 06:24:01;;;;;;;14.33;6.37;;;6.10;97.00;;;;;;5000741;28;20175;-90
2022/02/23 06:26:27;;;;;;;15.97;6.10;;;6.10;97.40;;;;;;5000297;28;20217;-90
2022/02/23 06:28:52;;;;;;;17.83;6.73;;;6.20;97.40;;;;;;4998497;28;20265;-89
2022/02/23 06:31:19;;;;;;;14.90;6.20;;;6.10;97.30;;;;;;4997734;28;20183;-90
2022/02/23 06:33:46;;;;;;;12.80;5.90;;;6.20;97.10;;;;;;4997180;28;20175;-91
2022/02/23 06:36:13;;;;;;;17.97;6.20;;;6.30;96.50;;;;;;4998912;28;20191;-91
2022/02/23 06:38:42;;;;;;;18.77;6.50;;;6.30;95.90;;;;;;4997785;28;20174;-92
2022/02/23 06:41:16;;;;;;;13.87;6.20;;;6.30;96.20;;;;;;4991595;28;20179;-88
2022/02/23 06:43:45;;;;;;;11.80;5.90;;;6.40;95.50;;;;;;4997741;28;20162;-89
2022/02/23 06:46:12;;;;;;;14.70;5.90;;;6.40;95.10;;;;;;5000461;28;20179;-87
2022/02/23 06:48:39;;;;;;;16.70;6.67;;;6.30;95.70;;;;;;5015270;28;20273;-87
2022/02/23 06:51:08;;;;;;;12.97;5.70;;;6.10;96.10;;;;;;5017353;28;20182;-89
2022/02/23 06:53:34;;;;;;;15.23;6.17;;;6.20;96.60;;;;;;5016083;28;20178;-90
2022/02/23 06:56:01;;;;;;;12.73;6.43;;;6.20;96.40;;;;;;5014031;28;20209;-90
2022/02/23 06:58:28;;;;;;;17.63;6.60;;;6.10;96.30;;;;;;5014493;28;20246;-87
2022/02/23 07:00:54;;;;;;;14.57;6.67;;;6.10;96.90;;;;;;5016596;28;20206;-92
2022/02/23 07:03:20;;;;;;;16.13;7.10;;;6.10;97.00;;;;;;5027102;28;20175;-86
2022/02/23 07:05:45;;;;;;;15.70;6.77;;;6.00;97.50;;;;;;5029108;28;20265;-87
2022/02/23 07:08:12;;;;;;;14.77;6.27;;;6.10;97.70;;;;;;5030009;28;20185;-86
2022/02/23 07:10:39;;;;;;;19.50;7.50;;;6.30;97.90;;;;;;5025037;28;20286;-88
2022/02/23 07:13:07;;;;;;;18.47;7.57;;;6.00;98.10;;;;;;5033194;28;20230;-87
2022/02/23 07:15:35;;;;;;;18.97;6.87;;;6.20;98.10;;;;;;5031072;28;20183;-88
2022/02/23 07:18:01;;;;;;;14.10;6.47;;;6.20;97.90;;;;;;5011255;28;20182;-86
2022/02/23 07:20:27;;;;;;;18.97;7.10;;;6.50;97.50;;;;;;5032872;28;20206;-85
2022/02/23 07:22:56;;;;;;;17.10;6.40;;;6.20;97.20;;;;;;5028437;28;20182;-88
2022/02/23 07:25:25;;;;;;;13.80;6.20;;;6.20;97.10;;;;;;5027358;28;20210;-89
2022/02/23 07:27:50;;;;;;;21.73;6.87;;;6.20;97.40;;;;;;5023929;28;20240;-87
2022/02/23 07:30:17;;;;;;;14.47;6.67;;;6.20;97.30;;;;;;5021392;28;20316;-90
2022/02/23 07:32:44;;;;;;;20.03;6.63;;;6.20;97.20;;;;;;5027168;28;20178;-89
2022/02/23 07:35:14;;;;;;;15.97;6.13;;;6.30;97.60;;;;;;5026478;28;20182;-90
2022/02/23 07:37:42;;;;;;;18.30;6.83;;;6.30;97.50;;;;;;5012726;28;20232;-88
2022/02/23 07:40:16;;;;;;;19.80;7.20;;;6.30;97.70;;;;;;5022047;28;20229;-89
2022/02/23 07:42:43;;;;;;;16.60;6.43;;;6.30;97.70;;;;;;5037958;28;20171;-90
2022/02/23 07:45:10;;;;;;;13.87;6.43;;;6.30;97.90;;;;;;5038243;28;20174;-88
2022/02/23 07:47:46;;;;;;;17.60;5.87;;;6.30;97.80;;;;;;5031006;28;20167;-87
2022/02/23 07:50:19;;;;;;;15.43;6.33;;;6.30;97.60;;;;;;5028969;28;20281;-91
2022/02/23 07:52:49;;;;;;;17.40;6.93;;;6.30;97.70;;;;;;5022019;28;20171;-88
2022/02/23 07:56:07;;;;;;;17.47;6.10;;;6.10;97.80;;;;;;5031620;28;20170;-90
2022/02/23 07:58:36;;;;;;;16.13;6.83;;;6.30;97.80;;;;;;5034684;28;20200;-91
2022/02/23 08:01:03;;;;;;;18.87;7.50;;;6.40;98.00;;;;;;5028346;28;20206;-88
2022/02/23 08:03:35;;;;;;;16.87;6.80;;;6.50;97.50;;;;;;5030846;28;20337;-91
2022/02/23 08:06:03;;;;;;;15.73;6.50;;;6.70;97.10;;;;;;5032203;28;20171;-91
2022/02/23 08:08:31;;;;;;;22.07;7.30;;;6.70;96.60;;;;;;5027492;28;20175;-90
2022/02/23 08:10:56;;;;;;;16.83;7.30;;;6.90;96.50;;;;;;5023150;28;20214;-89
2022/02/23 08:13:24;;;;;;;11.97;7.00;;;7.00;96.00;;;;;;5028821;28;20213;-89
2022/02/23 08:21:22;;;;;;;18.63;7.30;;;7.30;95.10;;;;;;5028466;28;20684;-89
2022/02/23 08:23:49;;;;;;;15.07;7.33;;;7.40;94.10;;;;;;5029491;28;20190;-88
2022/02/23 08:26:14;;;;;;;18.13;7.93;;;7.50;93.30;;;;;;5031529;28;20198;-86
2022/02/23 08:28:41;;;;;;;20.57;9.77;;;7.60;92.90;;;;;;5021365;28;20191;-88
2022/02/23 08:31:08;;;;;;;19.63;9.40;;;7.70;93.00;;;;;;5020719;28;20707;-88
2022/02/23 08:33:34;;;;;;;18.00;8.13;;;7.80;92.50;;;;;;5024373;28;20182;-88
2022/02/23 08:36:11;;;;;;;16.93;7.70;;;7.70;92.40;;;;;;5025881;28;20178;-87
2022/02/23 08:38:39;;;;;;;18.67;7.40;;;7.70;92.20;;;;;;5021215;28;20240;-89
2022/02/23 08:41:05;;;;;;;20.27;6.93;;;7.70;92.20;;;;;;5022077;28;20186;-87
2022/02/23 08:43:35;;;;;;;17.80;7.33;;;7.80;92.40;;;;;;5021435;28;20191;-88
2022/02/23 08:46:08;;;;;;;14.23;6.93;;;7.60;92.50;;;;;;5028018;28;20528;-90
2022/02/23 08:48:40;;;;;;;24.10;7.80;;;7.80;92.20;;;;;;5022323;28;20281;-87
2022/02/23 08:51:06;;;;;;;15.93;7.13;;;8.00;92.00;;;;;;5023398;28;20187;-91
2022/02/23 08:53:37;;;;;;;20.53;7.07;;;8.10;91.30;;;;;;5025266;28;20183;-90
2022/02/23 08:56:15;;;;;;;17.17;7.20;;;8.10;90.40;;;;;;5031590;28;20220;-90
2022/02/23 08:58:43;;;;;;;22.17;7.07;;;8.20;90.10;;;;;;5014303;28;20187;-89
2022/02/23 09:01:09;;;;;;;22.43;6.77;;;8.20;89.60;;;;;;5009940;28;20175;-87
2022/02/23 09:04:22;;;;;;;17.67;6.87;;;8.30;89.40;;;;;;5017955;28;20196;-91
2022/02/23 09:06:52;;;;;;;21.67;7.77;;;8.50;88.80;;;;;;5026346;28;20218;-90
2022/02/23 09:09:20;;;;;;;14.47;6.53;;;8.50;87.50;;;;;;5029042;28;20293;-91
2022/02/23 09:11:58;;;;;;;15.60;6.60;;;8.80;85.30;;;;;;5020955;28;20166;-94
2022/02/23 09:14:25;;;;;;;15.67;6.23;;;8.70;82.80;;;;;;5023303;28;20174;-92
2022/02/23 09:16:54;;;;;;;13.90;5.77;;;8.70;79.70;;;;;;5025011;28;20175;-87
2022/02/23 09:19:22;;;;;;;16.63;5.97;;;8.70;78.60;;;;;;5020951;28;20197;-89
2022/02/23 09:21:54;;;;;;;12.87;6.00;;;8.70;78.50;;;;;;5022620;28;20635;-88
2022/02/23 09:24:20;;;;;;;15.13;5.00;;;8.70;76.30;;;;;;5020739;28;20194;-90
2022/02/23 09:26:45;;;;;;;13.50;5.67;;;8.80;75.90;;;;;;5022902;28;20661;-88
2022/02/23 09:29:12;;;;;;;12.37;5.17;;;9.00;75.60;;;;;;5021626;28;20209;-87
2022/02/23 09:31:38;;;;;;;16.93;5.57;;;9.20;73.10;;;;;;5005147;28;20190;-88
2022/02/23 09:34:05;;;;;;;14.40;5.80;;;9.40;68.60;;;;;;5028053;28;20158;-90
2022/02/23 09:36:31;;;;;;;15.37;5.53;;;9.60;65.30;;;;;;5030416;28;20187;-90
2022/02/23 09:38:58;;;;;;;16.73;5.50;;;9.70;62.40;;;;;;5019560;28;20201;-92
2022/02/23 09:41:24;;;;;;;12.30;5.27;;;10.10;56.00;;;;;;5008450;28;20245;-90
2022/02/23 09:43:54;;;;;;;16.60;6.00;;;9.90;56.80;;;;;;5025072;28;20155;-94
2022/02/23 09:46:24;;;;;;;16.93;6.03;;;9.90;58.70;;;;;;5012755;28;20190;-94
2022/02/23 09:48:53;;;;;;;14.27;5.63;;;10.00;54.50;;;;;;5029769;28;20170;-92
2022/02/23 09:51:21;;;;;;;13.87;5.10;;;10.00;55.00;;;;;;5032435;28;20182;-89
2022/02/23 09:53:55;;;;;;;13.63;4.70;;;10.40;67.30;;;;;;5031719;28;20174;-89
2022/02/23 09:56:28;;;;;;;13.17;5.17;;;10.70;62.30;;;;;;5015207;28;20190;-92
2022/02/23 09:59:17;;;;;;;15.50;5.20;;;10.70;49.00;;;;;;5019797;28;20182;-89
2022/02/23 10:01:48;;;;;;;18.10;5.97;;;10.70;47.20;;;;;;5033617;28;20182;-89
2022/02/23 10:04:19;;;;;;;13.23;5.30;;;10.70;46.40;;;;;;5031580;28;20250;-93
2022/02/23 10:06:49;;;;;;;13.67;4.87;;;10.80;45.20;;;;;;5020657;28;20186;-94
2022/02/23 10:09:54;;;;;;;14.33;5.17;;;10.80;39.30;;;;;;5019231;28;20220;-88
2022/02/23 10:12:26;;;;;;;11.10;3.93;;;10.80;40.60;;;;;;5037269;28;20169;-88
2022/02/23 10:15:17;;;;;;;13.37;4.77;;;10.80;39.80;;;;;;5037361;28;20201;-89
2022/02/23 10:46:38;;;;;;;21.90;7.73;;;11.20;28.00;;;;;;5044181;28;20241;-93
2022/02/23 10:49:08;;;;;;;14.47;4.37;;;11.10;25.10;;;;;;5039805;28;20188;-95
2022/02/23 10:51:48;;;;;;;11.13;4.33;;;11.10;16.10;;;;;;5028504;28;20209;-93
2022/02/23 10:54:23;;;;;;;14.43;5.53;;;11.30;12.30;;;;;;5046128;28;20177;-94
2022/02/23 10:57:25;;;;;;;20.10;6.87;;;11.30;9.60;;;;;;5050474;28;20177;-93
2022/02/23 11:00:25;;;;;;;23.13;7.90;;;11.50;3.80;;;;;;5048292;28;20231;-93
2022/02/23 11:02:52;;;;;;;12.97;3.37;;;11.70;6.00;;;;;;5048673;28;20177;-93
2022/02/23 11:05:25;;;;;;;13.27;4.73;;;11.60;1.10;;;;;;5048716;28;20208;-93
2022/02/23 11:07:55;;;;;;;18.13;4.53;;;11.70;1.00;;;;;;5045015;28;20204;-91
2022/02/23 11:10:29;;;;;;;14.00;4.00;;;11.70;1.00;;;;;;5050709;28;20736;-93
2022/02/23 11:13:04;;;;;;;13.47;3.43;;;11.80;1.00;;;;;;5044575;28;20258;-92
2022/02/23 11:15:35;;;;;;;12.33;3.23;;;11.90;1.00;;;;;;5047487;28;20204;-91
2022/02/23 11:18:03;;;;;;;10.00;2.80;;;12.00;1.00;;;;;;5050389;28;20695;-90
2022/02/23 11:20:34;;;;;;;11.07;2.80;;;12.00;1.00;;;;;;5030761;28;20201;-91
2022/02/23 11:23:02;;;;;;;9.20;3.57;;;12.00;1.00;;;;;;5035293;28;20214;-91
2022/02/23 11:25:39;;;;;;;8.73;2.87;;;12.00;1.00;;;;;;5018790;28;20169;-91
2022/02/23 11:28:33;;;;;;;11.80;3.00;;;12.10;1.00;;;;;;5053062;28;20164;-91
2022/02/23 11:31:11;;;;;;;10.00;2.67;;;12.00;1.00;;;;;;5059355;28;20304;-92
2022/02/23 11:34:00;;;;;;;12.63;3.20;;;12.00;1.00;;;;;;5055030;28;20223;-91
2022/02/23 11:36:49;;;;;;;8.23;2.77;;;12.00;1.00;;;;;;5047368;28;20183;-89
2022/02/23 11:39:29;;;;;;;8.30;3.13;;;12.00;1.00;;;;;;5049066;28;20166;-90
2022/02/23 11:42:50;;;;;;;;;;;;;;;;;;;;;
2022/02/23 11:45:16;;;;;;;13.50;2.97;;;12.10;1.00;;;;;;5047092;28;20255;-91
2022/02/23 11:47:50;;;;;;;8.87;3.10;;;12.30;1.00;;;;;;5047373;28;20634;-91
2022/02/23 11:50:31;;;;;;;8.90;3.13;;;12.30;1.00;;;;;;5028658;28;20236;-92
2022/02/23 11:56:12;;;;;;;12.53;2.60;;;12.40;1.00;;;;;;5048874;28;20182;-91
2022/02/23 11:58:48;;;;;;;12.23;3.17;;;12.50;1.00;;;;;;5043496;28;20221;-90
2022/02/23 12:01:45;;;;;;;7.27;2.47;;;12.60;1.00;;;;;;5052694;28;20175;-91
2022/02/23 12:04:18;;;;;;;10.60;4.07;;;12.60;1.00;;;;;;5039713;28;20189;-92
2022/02/23 12:07:55;;;;;;;8.83;2.40;;;12.50;1.00;;;;;;5053866;28;20174;-93
2022/02/23 12:10:33;;;;;;;7.03;2.03;;;12.60;1.00;;;;;;4973653;28;20747;-90
2022/02/23 12:13:39;;;;;;;6.73;2.53;;;12.80;1.00;;;;;;4977088;28;20192;-92
2022/02/23 12:16:38;;;;;;;9.23;2.10;;;12.40;1.00;;;;;;4975536;28;20218;-91
2022/02/23 12:19:40;;;;;;;8.13;2.47;;;12.40;1.00;;;;;;4973830;28;20244;-92
2022/02/23 12:22:42;;;;;;;9.73;2.80;;;12.60;1.00;;;;;;4978601;28;20176;-92
2022/02/23 12:25:09;;;;;;;9.63;2.90;;;12.60;1.00;;;;;;4952396;28;20246;-93
2022/02/23 12:27:36;;;;;;;13.60;3.00;;;12.70;1.00;;;;;;4971723;28;20648;-90
2022/02/23 12:30:14;;;;;;;12.13;2.90;;;12.90;1.00;;;;;;4951647;29;20303;-91
2022/02/23 12:32:55;;;;;;;7.67;2.37;;;12.80;1.00;;;;;;5018500;28;20216;-90
2022/02/23 12:35:39;;;;;;;10.13;2.87;;;12.60;1.00;;;;;;5036486;28;20193;-93
2022/02/23 12:38:06;;;;;;;8.83;3.10;;;12.60;1.00;;;;;;5031765;28;20239;-89
2022/02/23 12:40:35;;;;;;;11.40;3.27;;;12.60;1.00;;;;;;5028682;28;20174;-92
2022/02/23 12:43:13;;;;;;;11.83;2.80;;;12.60;1.00;;;;;;5033753;28;20167;-93
2022/02/23 12:46:02;;;;;;;7.87;2.40;;;12.40;1.00;;;;;;5035652;28;20221;-89
2022/02/23 12:48:33;;;;;;;9.83;2.70;;;12.40;1.00;;;;;;5032278;28;20190;-90
2022/02/23 12:51:30;;;;;;;9.73;2.37;;;12.40;1.00;;;;;;5040484;28;20255;-92
2022/02/23 12:54:34;;;;;;;9.10;2.40;;;12.30;1.00;;;;;;5053119;28;20213;-93
2022/02/23 12:57:07;;;;;;;7.03;2.33;;;12.40;1.00;;;;;;5051148;28;20246;-93
2022/02/23 12:59:39;;;;;;;7.13;2.73;;;12.30;1.00;;;;;;5057451;28;20208;-93
2022/02/23 13:02:33;;;;;;;7.87;2.43;;;12.50;1.00;;;;;;5051373;28;20181;-92
2022/02/23 13:05:06;;;;;;;8.17;3.17;;;12.60;1.00;;;;;;5052638;28;20189;-88
2022/02/23 13:07:52;;;;;;;7.13;2.77;;;12.60;1.00;;;;;;5047523;28;20257;-90
2022/02/23 13:10:19;;;;;;;13.97;3.67;;;12.70;1.00;;;;;;5039624;28;20212;-92
2022/02/23 13:12:45;;;;;;;11.90;3.00;;;12.90;1.00;;;;;;5035705;28;20622;-90
2022/02/23 13:15:13;;;;;;;8.53;2.40;;;13.10;1.00;;;;;;5032950;28;20197;-92
2022/02/23 13:18:12;;;;;;;9.53;2.50;;;13.20;1.00;;;;;;5047820;28;20185;-91
2022/02/23 13:20:39;;;;;;;11.50;2.87;;;13.20;1.00;;;;;;5046974;28;20181;-91
2022/02/23 13:28:23;;;;;;;6.40;1.70;;;12.90;1.00;;;;;;5065444;28;20212;-90
2022/02/23 13:30:59;;;;;;;6.97;2.43;;;13.00;1.00;;;;;;5065057;28;20216;-89
2022/02/23 13:33:27;;;;;;;8.30;2.87;;;12.80;1.00;;;;;;5066098;28;20169;-91
2022/02/23 13:36:46;;;;;;;7.80;2.50;;;12.70;1.00;;;;;;5072080;28;20177;-91
2022/02/23 13:39:47;;;;;;;8.73;2.30;;;12.70;1.00;;;;;;5064654;28;20241;-88
2022/02/23 13:42:35;;;;;;;6.93;2.10;;;12.50;1.00;;;;;;5058447;28;20189;-91
2022/02/23 13:45:31;;;;;;;4.07;1.70;;;12.60;1.00;;;;;;5074535;28;20184;-91
2022/02/23 13:48:07;;;;;;;6.00;2.07;;;12.70;1.00;;;;;;5075971;28;20180;-89
2022/02/23 13:50:56;;;;;;;4.70;1.80;;;12.80;1.00;;;;;;5066267;28;20204;-92
2022/02/23 13:53:28;;;;;;;7.17;2.23;;;12.80;1.00;;;;;;5071519;28;20176;-88